createdAt,value
2023-02-19T00:01:08.794Z,72.40
2023-02-19T00:03:36.245Z,72.40
2023-02-19T00:06:04.131Z,72.40
2023-02-19T00:08:32.177Z,72.40
2023-02-19T00:11:03.522Z,72.70
2023-02-19T00:13:30.935Z,72.90
2023-02-19T00:16:05.020Z,72.90
2023-02-19T00:18:32.247Z,72.90
2023-02-19T00:20:59.413Z,73.10
2023-02-19T00:23:27.944Z,73.10
2023-02-19T00:25:55.422Z,73.60
2023-02-19T00:28:23.021Z,73.40
2023-02-19T00:30:50.319Z,73.30
2023-02-19T00:33:18.881Z,73.10
2023-02-19T00:35:46.064Z,73.00
2023-02-19T00:38:13.272Z,73.10
2023-02-19T00:40:40.466Z,73.00
2023-02-19T00:43:07.680Z,73.00
2023-02-19T00:45:35.663Z,73.00
2023-02-19T00:48:02.955Z,73.10
2023-02-19T00:50:31.472Z,73.40
2023-02-19T00:52:58.654Z,73.40
2023-02-19T00:55:25.831Z,73.40
2023-02-19T00:57:53.027Z,73.60
2023-02-19T01:00:20.836Z,73.90
2023-02-19T01:02:48.012Z,74.10
2023-02-19T01:05:15.289Z,74.10
2023-02-19T01:07:43.858Z,74.20
2023-02-19T01:10:11.068Z,74.20
2023-02-19T01:12:38.226Z,74.40
2023-02-19T01:15:05.868Z,74.30
2023-02-19T01:17:35.627Z,74.30
2023-02-19T01:20:03.030Z,74.20
2023-02-19T01:22:30.258Z,74.40
2023-02-19T01:24:58.897Z,74.40
2023-02-19T01:27:26.055Z,74.50
2023-02-19T01:29:53.646Z,74.50
2023-02-19T01:32:20.878Z,74.30
2023-02-19T01:34:48.073Z,74.20
2023-02-19T01:37:15.319Z,74.20
2023-02-19T01:39:42.558Z,74.20
2023-02-19T01:42:15.213Z,74.40
2023-02-19T01:45:18.662Z,74.50
2023-02-19T01:47:46.545Z,74.60
2023-02-19T01:50:13.797Z,74.60
2023-02-19T01:52:41.399Z,74.70
2023-02-19T01:55:12.561Z,74.50
2023-02-19T01:57:44.708Z,74.30
2023-02-19T02:00:15.266Z,74.00
2023-02-19T02:02:46.396Z,73.70
2023-02-19T02:05:19.547Z,73.70
2023-02-19T02:08:05.446Z,73.80
2023-02-19T02:10:33.564Z,73.70
2023-02-19T02:13:02.779Z,73.80
2023-02-19T02:15:39.972Z,73.70
2023-02-19T02:18:18.823Z,73.50
2023-02-19T02:21:03.392Z,73.40
2023-02-19T02:23:44.279Z,73.40
2023-02-19T02:26:38.177Z,73.20
2023-02-19T02:29:37.399Z,72.90
2023-02-19T02:32:10.298Z,72.70
2023-02-19T02:34:45.616Z,72.90
2023-02-19T02:37:14.472Z,72.90
2023-02-19T02:39:42.683Z,73.20
2023-02-19T02:42:28.302Z,73.20
2023-02-19T02:45:37.220Z,73.10
2023-02-19T02:48:30.091Z,73.20
2023-02-19T02:51:02.551Z,72.90
2023-02-19T02:53:56.888Z,73.00
2023-02-19T02:56:25.919Z,73.00
2023-02-19T02:58:54.844Z,72.90
2023-02-19T03:01:44.443Z,73.00
2023-02-19T03:04:21.791Z,72.90
2023-02-19T03:06:50.598Z,72.90
2023-02-19T03:09:21.933Z,72.80
2023-02-19T03:12:10.882Z,72.80
2023-02-19T03:15:02.365Z,72.70
2023-02-19T03:17:55.633Z,72.90
2023-02-19T03:20:25.769Z,72.90
2023-02-19T03:22:55.871Z,72.50
2023-02-19T03:25:45.421Z,72.60
2023-02-19T03:28:18.238Z,72.60
2023-02-19T03:30:50.280Z,72.80
2023-02-19T03:33:20.055Z,72.90
2023-02-19T03:35:53.529Z,73.00
2023-02-19T03:38:28.806Z,72.90
2023-02-19T03:41:03.146Z,72.90
2023-02-19T03:43:38.178Z,72.70
2023-02-19T03:46:11.504Z,72.20
2023-02-19T03:48:46.432Z,72.20
2023-02-19T03:51:27.612Z,72.70
2023-02-19T03:54:08.839Z,72.90
2023-02-19T03:56:42.836Z,72.70
2023-02-19T03:59:14.287Z,73.00
2023-02-19T04:01:45.256Z,72.60
2023-02-19T04:04:18.902Z,72.40
2023-02-19T04:06:53.848Z,72.60
2023-02-19T04:09:22.845Z,72.30
2023-02-19T04:11:58.889Z,72.20
2023-02-19T04:14:30.710Z,72.20
2023-02-19T04:17:01.596Z,72.20
2023-02-19T04:19:32.896Z,71.90
2023-02-19T04:22:02.239Z,71.80
2023-02-19T04:24:33.455Z,72.20
2023-02-19T04:27:01.115Z,72.40
2023-02-19T04:29:28.303Z,72.70
2023-02-19T04:31:55.589Z,72.70
2023-02-19T04:34:22.815Z,72.80
2023-02-19T04:36:49.995Z,72.50
2023-02-19T04:39:18.534Z,72.30
2023-02-19T04:41:45.728Z,72.20
2023-02-19T04:44:12.909Z,72.70
2023-02-19T04:46:42.729Z,72.80
2023-02-19T04:49:10.450Z,72.90
2023-02-19T04:51:38.501Z,72.40
2023-02-19T04:54:05.809Z,72.60
2023-02-19T04:56:34.324Z,72.30
2023-02-19T04:59:01.552Z,72.20
2023-02-19T05:01:29.131Z,72.80
2023-02-19T05:03:56.373Z,73.10
2023-02-19T05:06:23.642Z,73.10
2023-02-19T05:08:50.833Z,73.10
2023-02-19T05:11:18.111Z,72.50
2023-02-19T05:13:46.652Z,73.20
2023-02-19T05:16:16.066Z,73.30
2023-02-19T05:18:45.207Z,73.60
2023-02-19T05:21:13.203Z,73.50
2023-02-19T05:23:41.040Z,73.30
2023-02-19T05:26:09.996Z,73.20
2023-02-19T05:28:37.200Z,73.10
2023-02-19T05:31:08.079Z,73.50
2023-02-19T05:33:35.557Z,73.50
2023-02-19T05:36:07.570Z,73.50
2023-02-19T05:38:35.076Z,73.40
2023-02-19T05:41:10.993Z,73.60
2023-02-19T05:43:38.550Z,73.50
2023-02-19T05:46:07.866Z,73.50
2023-02-19T05:48:35.317Z,73.40
2023-02-19T05:51:03.290Z,73.40
2023-02-19T05:53:30.586Z,73.40
2023-02-19T05:55:58.243Z,73.30
2023-02-19T05:58:25.850Z,73.40
2023-02-19T06:00:53.342Z,73.30
2023-02-19T06:03:22.161Z,73.30
2023-02-19T06:05:49.428Z,73.80
2023-02-19T06:08:16.633Z,73.60
2023-02-19T06:10:43.859Z,73.60
2023-02-19T06:13:11.368Z,73.50
2023-02-19T06:15:38.585Z,73.60
2023-02-19T06:18:05.856Z,73.30
2023-02-19T06:20:34.360Z,73.70
2023-02-19T06:23:01.595Z,73.60
2023-02-19T06:25:28.795Z,73.40
2023-02-19T06:27:56.037Z,73.40
2023-02-19T06:30:23.333Z,73.30
2023-02-19T06:32:52.240Z,73.50
2023-02-19T06:35:19.851Z,73.50
2023-02-19T06:37:49.122Z,73.40
2023-02-19T06:40:16.974Z,73.70
2023-02-19T06:42:44.204Z,73.70
2023-02-19T06:45:11.416Z,73.60
2023-02-19T06:47:38.744Z,73.60
2023-02-19T06:50:06.391Z,73.80
2023-02-19T06:52:33.621Z,73.70
2023-02-19T06:55:02.166Z,73.70
2023-02-19T06:57:29.370Z,73.70
2023-02-19T06:59:56.670Z,73.80
2023-02-19T07:02:23.898Z,74.00
2023-02-19T07:04:51.114Z,74.00
2023-02-19T07:07:18.290Z,73.90
2023-02-19T07:09:45.460Z,73.70
2023-02-19T07:12:13.967Z,74.00
2023-02-19T07:14:41.157Z,73.90
2023-02-19T07:17:08.378Z,73.70
2023-02-19T07:19:35.553Z,74.00
2023-02-19T07:22:02.747Z,74.00
2023-02-19T07:24:29.947Z,73.50
2023-02-19T07:26:57.130Z,73.60
2023-02-19T07:29:25.638Z,73.80
2023-02-19T07:31:52.847Z,73.60
2023-02-19T07:34:20.780Z,73.50
2023-02-19T07:36:47.959Z,73.70
2023-02-19T07:39:15.857Z,73.00
2023-02-19T07:41:43.032Z,72.80
2023-02-19T07:44:13.455Z,73.00
2023-02-19T07:46:42.043Z,72.60
2023-02-19T07:49:09.409Z,72.70
2023-02-19T07:51:39.754Z,72.70
2023-02-19T07:54:08.039Z,74.50
2023-02-19T07:56:35.220Z,73.70
2023-02-19T07:59:02.428Z,73.10
2023-02-19T08:01:48.535Z,73.40
2023-02-19T08:04:17.066Z,73.50
2023-02-19T08:06:44.288Z,73.90
2023-02-19T08:09:11.625Z,73.60
2023-02-19T08:11:57.697Z,72.70
2023-02-19T08:14:25.712Z,73.00
2023-02-19T08:16:53.597Z,72.10
2023-02-19T08:19:22.477Z,71.90
2023-02-19T08:21:50.582Z,72.00
2023-02-19T08:24:17.788Z,71.60
2023-02-19T08:26:44.995Z,71.80
2023-02-19T08:29:12.176Z,71.00
2023-02-19T08:31:39.559Z,70.90
2023-02-19T08:34:06.953Z,70.40
2023-02-19T08:36:35.511Z,69.30
2023-02-19T08:39:02.773Z,68.30
2023-02-19T08:41:29.983Z,68.30
2023-02-19T08:43:57.220Z,68.70
2023-02-19T08:46:24.510Z,68.60
2023-02-19T08:48:52.166Z,67.60
2023-02-19T08:51:19.422Z,67.60
2023-02-19T08:53:48.067Z,67.50
2023-02-19T08:56:17.297Z,67.70
2023-02-19T08:58:45.181Z,65.20
2023-02-19T09:01:14.641Z,65.40
2023-02-19T09:03:42.596Z,63.80
2023-02-19T09:06:14.798Z,62.40
2023-02-19T09:08:42.005Z,62.70
2023-02-19T09:11:10.882Z,63.20
2023-02-19T09:13:38.213Z,63.60
2023-02-19T09:16:05.934Z,62.40
2023-02-19T09:18:33.241Z,63.00
2023-02-19T09:21:01.757Z,61.30
2023-02-19T09:23:29.392Z,61.60
2023-02-19T09:26:00.277Z,62.30
2023-02-19T09:28:28.849Z,60.20
2023-02-19T09:30:56.111Z,62.20
2023-02-19T09:33:23.380Z,61.50
2023-02-19T09:35:50.558Z,61.70
2023-02-19T09:38:17.739Z,61.30
2023-02-19T09:40:45.241Z,61.20
2023-02-19T09:43:17.432Z,60.90
2023-02-19T09:45:46.595Z,60.60
2023-02-19T09:48:13.804Z,58.60
2023-02-19T09:50:45.733Z,59.90
2023-02-19T09:53:17.272Z,62.50
2023-02-19T09:55:44.980Z,61.90
2023-02-19T09:58:25.634Z,62.30
2023-02-19T10:00:56.078Z,60.60
2023-02-19T10:03:30.543Z,59.30
2023-02-19T10:05:59.758Z,60.90
2023-02-19T10:08:27.042Z,60.10
2023-02-19T10:10:54.830Z,59.60
2023-02-19T10:13:24.038Z,58.40
2023-02-19T10:15:54.250Z,56.50
2023-02-19T10:18:25.658Z,58.00
2023-02-19T10:20:53.296Z,58.90
2023-02-19T10:23:20.823Z,58.30
2023-02-19T10:25:51.521Z,57.20
2023-02-19T10:28:22.417Z,55.50
2023-02-19T10:30:54.121Z,54.10
2023-02-19T10:33:23.202Z,53.40
2023-02-19T10:35:54.881Z,55.60
2023-02-19T10:38:26.022Z,56.20
2023-02-19T10:41:02.730Z,54.60
2023-02-19T10:43:33.842Z,54.50
2023-02-19T10:46:04.737Z,54.50
2023-02-19T10:48:36.591Z,52.80
2023-02-19T10:51:08.168Z,52.40
2023-02-19T10:53:46.770Z,52.40
2023-02-19T10:56:16.568Z,50.70
2023-02-19T10:58:44.941Z,49.00
2023-02-19T11:01:15.657Z,51.50
2023-02-19T11:03:44.775Z,52.20
2023-02-19T11:06:14.257Z,50.60
2023-02-19T11:08:54.194Z,51.60
2023-02-19T11:11:37.352Z,49.70
2023-02-19T11:14:12.710Z,47.60
2023-02-19T11:16:43.476Z,48.50
2023-02-19T11:19:31.287Z,48.80
2023-02-19T11:21:59.209Z,47.70
2023-02-19T11:24:30.871Z,49.80
2023-02-19T11:26:59.572Z,50.20
2023-02-19T11:29:28.776Z,48.70
2023-02-19T11:31:56.607Z,47.80
2023-02-19T11:34:30.020Z,46.90
2023-02-19T11:37:12.026Z,48.70
2023-02-19T11:39:42.159Z,47.60
2023-02-19T11:42:33.498Z,47.30
2023-02-19T11:45:13.086Z,46.10
2023-02-19T11:48:09.044Z,47.30
2023-02-19T11:50:48.410Z,46.20
2023-02-19T11:53:22.288Z,47.80
2023-02-19T11:55:59.008Z,46.20
2023-02-19T11:58:48.775Z,47.00
2023-02-19T12:01:24.002Z,46.30
2023-02-19T12:04:08.544Z,44.70
2023-02-19T12:06:47.604Z,45.00
2023-02-19T12:09:36.914Z,44.90
2023-02-19T12:12:21.580Z,45.30
2023-02-19T12:15:12.935Z,45.80
2023-02-19T12:18:06.477Z,41.60
2023-02-19T12:20:40.028Z,41.90
2023-02-19T12:23:43.749Z,43.60
2023-02-19T12:26:22.065Z,44.20
2023-02-19T12:29:12.108Z,44.10
2023-02-19T12:32:06.498Z,44.30
2023-02-19T12:34:46.053Z,44.60
2023-02-19T12:37:25.338Z,46.30
2023-02-19T12:40:02.747Z,46.30
2023-02-19T12:42:44.744Z,44.70
2023-02-19T12:45:20.145Z,46.00
2023-02-19T12:48:00.268Z,45.00
2023-02-19T12:50:28.691Z,46.30
2023-02-19T12:53:02.085Z,46.00
2023-02-19T12:55:35.600Z,45.90
2023-02-19T12:58:05.514Z,45.50
2023-02-19T13:00:39.537Z,47.00
2023-02-19T13:03:16.509Z,46.80
2023-02-19T13:05:49.833Z,48.20
2023-02-19T13:08:23.668Z,47.70
2023-02-19T13:10:58.247Z,48.00
2023-02-19T13:13:29.206Z,48.00
2023-02-19T13:16:01.611Z,48.40
2023-02-19T13:18:36.922Z,47.60
2023-02-19T13:21:06.193Z,47.70
2023-02-19T13:23:55.245Z,47.80
2023-02-19T13:26:38.703Z,47.00
2023-02-19T13:29:17.732Z,48.50
2023-02-19T13:32:05.566Z,48.10
2023-02-19T13:34:45.455Z,49.70
2023-02-19T13:37:12.768Z,48.30
2023-02-19T13:39:48.582Z,47.60
2023-02-19T13:42:25.658Z,47.50
2023-02-19T13:44:57.717Z,49.00
2023-02-19T13:47:46.163Z,48.90
2023-02-19T13:50:20.564Z,49.20
2023-02-19T13:52:47.853Z,47.80
2023-02-19T13:55:46.663Z,48.80
2023-02-19T13:58:38.939Z,48.20
2023-02-19T14:01:07.589Z,45.70
2023-02-19T14:03:47.691Z,45.30
2023-02-19T14:06:14.947Z,42.90
2023-02-19T14:08:55.936Z,42.20
2023-02-19T14:12:00.671Z,41.50
2023-02-19T14:14:35.292Z,43.20
2023-02-19T14:17:05.642Z,41.60
2023-02-19T14:19:48.988Z,42.60
2023-02-19T14:22:56.944Z,43.40
2023-02-19T14:25:46.144Z,43.10
2023-02-19T14:28:19.132Z,43.10
2023-02-19T14:30:51.082Z,43.70
2023-02-19T14:33:21.725Z,43.50
2023-02-19T14:35:53.428Z,44.20
2023-02-19T14:38:25.170Z,44.90
2023-02-19T14:40:54.134Z,44.60
2023-02-19T14:43:24.772Z,44.80
2023-02-19T14:45:56.879Z,45.60
2023-02-19T14:48:28.823Z,45.90
2023-02-19T14:51:03.157Z,44.10
2023-02-19T14:53:35.182Z,44.40
2023-02-19T14:56:03.619Z,44.40
2023-02-19T14:58:33.216Z,44.10
2023-02-19T15:01:01.787Z,43.80
2023-02-19T15:03:34.716Z,43.20
2023-02-19T15:06:05.946Z,44.00
2023-02-19T15:08:37.916Z,44.60
2023-02-19T15:11:11.128Z,44.80
2023-02-19T15:13:45.394Z,44.90
2023-02-19T15:16:18.682Z,45.30
2023-02-19T15:18:46.958Z,45.10
2023-02-19T15:21:23.413Z,44.20
2023-02-19T15:23:51.712Z,44.20
2023-02-19T15:26:22.169Z,43.60
2023-02-19T15:28:58.676Z,43.40
2023-02-19T15:31:27.479Z,43.80
2023-02-19T15:33:55.362Z,44.00
2023-02-19T15:36:27.616Z,45.20
2023-02-19T15:38:57.830Z,44.60
2023-02-19T15:41:28.652Z,44.50
2023-02-19T15:44:01.938Z,45.00
2023-02-19T15:46:30.980Z,44.10
2023-02-19T15:49:03.320Z,44.80
2023-02-19T15:51:34.889Z,44.40
2023-02-19T15:54:09.931Z,43.70
2023-02-19T15:56:40.030Z,44.00
2023-02-19T15:59:16.291Z,45.10
2023-02-19T16:01:45.201Z,44.90
2023-02-19T16:04:14.608Z,44.90
2023-02-19T16:06:55.973Z,46.00
2023-02-19T16:09:30.780Z,46.40
2023-02-19T16:11:59.738Z,46.80
2023-02-19T16:14:31.404Z,46.70
2023-02-19T16:17:07.535Z,47.20
2023-02-19T16:19:45.095Z,47.80
2023-02-19T16:22:14.440Z,47.00
2023-02-19T16:24:45.383Z,47.50
2023-02-19T16:27:13.894Z,47.60
2023-02-19T16:29:41.429Z,47.80
2023-02-19T16:32:16.989Z,48.00
2023-02-19T16:34:46.858Z,48.60
2023-02-19T16:37:35.073Z,48.60
2023-02-19T16:40:54.178Z,48.60
2023-02-19T16:43:31.384Z,49.30
2023-02-19T16:45:59.573Z,49.20
2023-02-19T16:48:29.167Z,50.00
2023-02-19T16:50:56.616Z,49.60
2023-02-19T16:53:25.235Z,49.60
2023-02-19T16:55:52.557Z,50.60
2023-02-19T16:58:20.036Z,50.70
2023-02-19T17:00:47.429Z,50.80
2023-02-19T17:03:18.164Z,50.80
2023-02-19T17:05:46.874Z,50.80
2023-02-19T17:08:28.826Z,51.10
2023-02-19T17:10:56.326Z,51.30
2023-02-19T17:13:23.841Z,51.30
2023-02-19T17:15:51.043Z,51.60
2023-02-19T17:18:18.440Z,51.90
2023-02-19T17:20:51.527Z,51.90
2023-02-19T17:23:18.737Z,52.10
2023-02-19T17:25:45.946Z,52.10
2023-02-19T17:28:13.141Z,52.50
2023-02-19T17:30:40.619Z,52.30
2023-02-19T17:33:07.945Z,52.30
2023-02-19T17:35:35.229Z,52.90
2023-02-19T17:38:09.419Z,52.60
2023-02-19T17:40:37.287Z,52.90
2023-02-19T17:43:04.820Z,52.90
2023-02-19T17:45:32.497Z,53.10
2023-02-19T17:48:00.058Z,53.40
2023-02-19T17:50:29.321Z,53.50
2023-02-19T17:52:56.759Z,54.00
2023-02-19T17:55:25.853Z,54.00
2023-02-19T17:57:53.597Z,54.10
2023-02-19T18:00:22.774Z,54.20
2023-02-19T18:02:50.165Z,54.10
2023-02-19T18:05:18.174Z,54.30
2023-02-19T18:07:45.991Z,54.60
2023-02-19T18:10:14.758Z,54.80
2023-02-19T18:12:43.594Z,55.00
2023-02-19T18:15:16.115Z,55.20
2023-02-19T18:17:43.378Z,55.50
2023-02-19T18:20:18.615Z,55.50
2023-02-19T18:22:45.926Z,55.80
2023-02-19T18:25:13.491Z,55.90
2023-02-19T18:27:40.766Z,56.00
2023-02-19T18:30:10.309Z,56.10
2023-02-19T18:32:37.859Z,56.20
2023-02-19T18:35:05.871Z,56.30
2023-02-19T18:37:33.895Z,56.40
2023-02-19T18:40:01.743Z,56.40
2023-02-19T18:42:29.182Z,56.60
2023-02-19T18:44:56.473Z,56.70
2023-02-19T18:47:25.555Z,56.80
2023-02-19T18:49:55.013Z,56.90
2023-02-19T18:52:24.805Z,57.00
2023-02-19T18:54:53.436Z,56.90
2023-02-19T18:57:22.444Z,57.30
2023-02-19T18:59:49.950Z,57.20
2023-02-19T19:02:18.289Z,57.30
2023-02-19T19:04:50.867Z,57.30
2023-02-19T19:07:19.600Z,57.30
2023-02-19T19:09:47.338Z,57.60
2023-02-19T19:12:15.481Z,57.70
2023-02-19T19:14:42.911Z,57.90
2023-02-19T19:17:10.475Z,58.00
2023-02-19T19:19:37.818Z,58.00
2023-02-19T19:22:06.359Z,58.00
2023-02-19T19:24:33.537Z,58.00
2023-02-19T19:27:00.807Z,58.10
2023-02-19T19:29:28.291Z,58.10
2023-02-19T19:31:55.569Z,58.30
2023-02-19T19:34:22.963Z,58.40
2023-02-19T19:36:50.138Z,58.50
2023-02-19T19:39:18.677Z,58.60
2023-02-19T19:41:45.920Z,58.80
2023-02-19T19:44:13.245Z,59.00
2023-02-19T19:46:45.466Z,59.10
2023-02-19T19:49:16.598Z,59.20
2023-02-19T19:51:44.229Z,59.30
2023-02-19T19:54:12.362Z,59.40
2023-02-19T19:56:42.280Z,59.40
2023-02-19T19:59:10.623Z,59.50
2023-02-19T20:01:38.382Z,59.70
2023-02-19T20:04:05.960Z,59.60
2023-02-19T20:06:33.275Z,59.80
2023-02-19T20:09:00.692Z,59.90
2023-02-19T20:11:27.979Z,60.00
2023-02-19T20:13:56.606Z,60.10
2023-02-19T20:16:25.186Z,60.30
2023-02-19T20:18:52.388Z,60.30
2023-02-19T20:21:19.904Z,60.40
2023-02-19T20:23:47.189Z,60.70
2023-02-19T20:26:21.733Z,60.70
2023-02-19T20:28:48.897Z,60.90
2023-02-19T20:31:17.894Z,61.20
2023-02-19T20:33:45.217Z,61.30
2023-02-19T20:36:12.450Z,61.50
2023-02-19T20:38:39.793Z,61.60
2023-02-19T20:41:06.978Z,61.60
2023-02-19T20:43:34.374Z,61.80
2023-02-19T20:46:01.835Z,62.00
2023-02-19T20:48:30.344Z,62.30
2023-02-19T20:50:59.505Z,62.10
2023-02-19T20:53:27.166Z,62.40
2023-02-19T20:55:56.034Z,62.60
2023-02-19T20:58:24.069Z,64.40
2023-02-19T21:00:53.465Z,63.30
2023-02-19T21:03:21.360Z,62.60
2023-02-19T21:05:50.007Z,62.50
2023-02-19T21:08:17.390Z,62.30
2023-02-19T21:10:45.827Z,62.30
2023-02-19T21:13:13.635Z,62.40
2023-02-19T21:15:41.005Z,62.60
2023-02-19T21:18:08.311Z,62.60
2023-02-19T21:20:35.491Z,62.70
2023-02-19T21:23:04.258Z,62.80
2023-02-19T21:25:33.064Z,62.50
2023-02-19T21:28:00.363Z,62.50
2023-02-19T21:30:27.587Z,62.60
2023-02-19T21:32:54.791Z,62.80
2023-02-19T21:35:21.983Z,62.90
2023-02-19T21:37:49.233Z,63.10
2023-02-19T21:40:18.127Z,63.10
2023-02-19T21:42:45.388Z,63.10
2023-02-19T21:45:12.626Z,63.10
2023-02-19T21:47:39.812Z,63.30
2023-02-19T21:50:07.940Z,63.50
2023-02-19T21:52:35.237Z,63.50
2023-02-19T21:55:02.453Z,64.20
2023-02-19T21:57:32.300Z,64.30
2023-02-19T21:59:59.521Z,64.40
2023-02-19T22:02:26.736Z,64.20
2023-02-19T22:04:54.720Z,64.40
2023-02-19T22:07:22.241Z,64.70
2023-02-19T22:09:50.111Z,64.70
2023-02-19T22:12:17.575Z,64.80
2023-02-19T22:14:46.311Z,65.00
2023-02-19T22:17:14.185Z,64.90
2023-02-19T22:19:41.443Z,64.90
2023-02-19T22:22:08.705Z,65.10
2023-02-19T22:24:36.065Z,65.00
2023-02-19T22:27:03.735Z,65.10
2023-02-19T22:29:31.190Z,65.00
2023-02-19T22:31:59.819Z,64.90
2023-02-19T22:34:27.048Z,64.90
2023-02-19T22:36:54.246Z,64.90
2023-02-19T22:39:23.224Z,65.50
2023-02-19T22:41:50.935Z,65.50
2023-02-19T22:44:18.572Z,65.70
2023-02-19T22:46:48.338Z,65.80
2023-02-19T22:49:16.953Z,66.00
2023-02-19T22:51:53.262Z,66.00
2023-02-19T22:54:24.866Z,65.80
2023-02-19T22:56:53.059Z,65.90
2023-02-19T22:59:21.156Z,66.30
2023-02-19T23:01:49.729Z,66.70
2023-02-19T23:04:19.847Z,67.00
2023-02-19T23:06:47.107Z,67.30
2023-02-19T23:09:17.180Z,67.30
2023-02-19T23:11:44.565Z,67.40
2023-02-19T23:14:12.146Z,67.40
2023-02-19T23:16:39.427Z,67.30
2023-02-19T23:19:11.279Z,67.50
2023-02-19T23:21:40.541Z,67.40
2023-02-19T23:24:08.076Z,67.20
2023-02-19T23:26:35.579Z,67.30
2023-02-19T23:29:03.208Z,67.30
2023-02-19T23:31:30.559Z,67.30
2023-02-19T23:33:57.836Z,67.10
2023-02-19T23:36:25.055Z,67.20
2023-02-19T23:38:53.615Z,67.20
2023-02-19T23:41:20.788Z,67.30
2023-02-19T23:43:47.997Z,67.40
2023-02-19T23:46:17.327Z,67.70
2023-02-19T23:48:45.927Z,68.20
2023-02-19T23:51:13.927Z,68.20
2023-02-19T23:53:41.272Z,68.50
2023-02-19T23:56:10.070Z,68.70
2023-02-19T23:58:37.337Z,68.50
